Terminal Aerodrome Forecast
Issued by NWS Portland, OR

Home | Current Version | Previous Version | Text Only | Print | Product List | Glossary On
Versions: 1 2 3 4 5 6 7 8 9 10 11 12 13 14 15 16 17 18 19
000
FTUS46 KPQR 060543
TAFSLE
TAF
KSLE 060543Z 0606/0706 19005KT P6SM -SHRA OVC006
     FM061300 VRB02KT P6SM VCSH OVC008
     FM061600 VRB02KT P6SM BKN012
     FM062000 01006KT P6SM FEW045=

USA.gov is the U.S. government's official web portal to all federal, state and local government web resources and services.